SBSL/SLZ METAR and TAF weather

Enter ICAO airport designator
Station Type Date Time Source
SBSL METAR 2020/06/03 22:00 UTC NOAA

SBSL 032200Z 05007KT CAVOK 28/25 Q1011


Station Type Date Time Source
SBSL Decoded METAR 2020/06/03 22:00 UTC NOAA

Sao Luiz Aeroporto , Brazil (SBSL) 02-36S 044-14W 53M
Jun 03, 2020 - 06:00 PM EDT / 2020.06.03 2200 UTC
Wind: from the NE (050 degrees) at 8 MPH (7 KT):0
Visibility: greater than 7 mile(s):0
Temperature: 82 F (28 C)
Dew Point: 77 F (25 C)
Relative Humidity: 83%
Pressure (altimeter): 29.85 in. Hg (1011 hPa)
ob: SBSL 032200Z 05007KT CAVOK 28/25 Q1011
cycle: 22

Station Type Date Time Source
SBSL TAF 2020/06/03 18:57 UTC NOAA

TAF SBSL 031500Z 0318/0406 36008KT 8000 SCT020 FEW025TCU TX30/0319Z TN25/0405Z
BECMG 0320/0322 SCT020
BECMG 0400/0401 03007KT CAVOK
BECMG 0404/0405 09007KT
RMK PEI

Example: see airport list